sensor_id;sensor_type;location;lat;lon;timestamp;temperature;humidity
75964;DHT22;65820;44.726;37.764;2023-02-18T00:01:29;13.83;52.33
75964;DHT22;65820;44.726;37.764;2023-02-18T00:03:18;13.83;52.30
75964;DHT22;65820;44.726;37.764;2023-02-18T00:04:20;13.82;52.32
75964;DHT22;65820;44.726;37.764;2023-02-18T00:09:37;13.80;52.33
75964;DHT22;65820;44.726;37.764;2023-02-18T00:10:40;13.81;52.46
75964;DHT22;65820;44.726;37.764;2023-02-18T00:12:52;13.80;52.49
75964;DHT22;65820;44.726;37.764;2023-02-18T00:13:59;13.80;52.45
75964;DHT22;65820;44.726;37.764;2023-02-18T00:15:01;13.81;52.50
75964;DHT22;65820;44.726;37.764;2023-02-18T00:18:37;13.80;52.41
75964;DHT22;65820;44.726;37.764;2023-02-18T00:19:38;13.80;52.62
75964;DHT22;65820;44.726;37.764;2023-02-18T00:20:40;13.81;52.65
75964;DHT22;65820;44.726;37.764;2023-02-18T00:21:41;13.79;52.75
75964;DHT22;65820;44.726;37.764;2023-02-18T00:29:24;13.81;52.79
75964;DHT22;65820;44.726;37.764;2023-02-18T00:40:38;13.78;53.04
75964;DHT22;65820;44.726;37.764;2023-02-18T00:41:40;13.79;52.97
75964;DHT22;65820;44.726;37.764;2023-02-18T00:42:42;13.78;53.01
75964;DHT22;65820;44.726;37.764;2023-02-18T00:50:27;13.77;53.16
75964;DHT22;65820;44.726;37.764;2023-02-18T00:59:32;13.76;53.15
75964;DHT22;65820;44.726;37.764;2023-02-18T01:00:35;13.76;53.15
75964;DHT22;65820;44.726;37.764;2023-02-18T01:01:36;13.76;53.10
75964;DHT22;65820;44.726;37.764;2023-02-18T01:04:38;13.75;53.10
75964;DHT22;65820;44.726;37.764;2023-02-18T01:05:40;13.75;53.01
75964;DHT22;65820;44.726;37.764;2023-02-18T01:06:41;13.75;53.01
75964;DHT22;65820;44.726;37.764;2023-02-18T01:07:43;13.75;52.96
75964;DHT22;65820;44.726;37.764;2023-02-18T01:08:44;13.76;52.96
75964;DHT22;65820;44.726;37.764;2023-02-18T01:09:45;13.75;53.02
75964;DHT22;65820;44.726;37.764;2023-02-18T01:10:51;13.75;52.98
75964;DHT22;65820;44.726;37.764;2023-02-18T01:11:53;13.76;52.97
75964;DHT22;65820;44.726;37.764;2023-02-18T01:18:20;13.77;52.88
75964;DHT22;65820;44.726;37.764;2023-02-18T01:19:21;13.77;52.83
75964;DHT22;65820;44.726;37.764;2023-02-18T01:20:23;13.78;52.84
75964;DHT22;65820;44.726;37.764;2023-02-18T01:29:44;13.76;52.79
75964;DHT22;65820;44.726;37.764;2023-02-18T01:30:45;13.75;52.81
75964;DHT22;65820;44.726;37.764;2023-02-18T01:31:47;13.76;52.75
75964;DHT22;65820;44.726;37.764;2023-02-18T01:32:49;13.75;52.81
75964;DHT22;65820;44.726;37.764;2023-02-18T01:39:52;13.74;52.73
75964;DHT22;65820;44.726;37.764;2023-02-18T01:40:53;13.74;52.71
75964;DHT22;65820;44.726;37.764;2023-02-18T01:41:55;13.74;52.75
75964;DHT22;65820;44.726;37.764;2023-02-18T01:42:56;13.75;52.79
75964;DHT22;65820;44.726;37.764;2023-02-18T01:44:20;13.75;52.75
75964;DHT22;65820;44.726;37.764;2023-02-18T01:49:13;13.74;52.69
75964;DHT22;65820;44.726;37.764;2023-02-18T01:59:17;13.73;52.68
75964;DHT22;65820;44.726;37.764;2023-02-18T02:00:21;13.73;52.73
75964;DHT22;65820;44.726;37.764;2023-02-18T02:01:23;13.73;52.72
75964;DHT22;65820;44.726;37.764;2023-02-18T02:02:29;13.73;52.70
75964;DHT22;65820;44.726;37.764;2023-02-18T02:03:32;13.71;52.65
75964;DHT22;65820;44.726;37.764;2023-02-18T02:04:33;13.74;52.69
75964;DHT22;65820;44.726;37.764;2023-02-18T02:05:35;13.73;52.72
75964;DHT22;65820;44.726;37.764;2023-02-18T02:06:36;13.74;52.68
75964;DHT22;65820;44.726;37.764;2023-02-18T02:07:40;13.74;52.72
75964;DHT22;65820;44.726;37.764;2023-02-18T02:08:43;13.75;52.65
75964;DHT22;65820;44.726;37.764;2023-02-18T02:09:47;13.74;52.63
75964;DHT22;65820;44.726;37.764;2023-02-18T02:12:24;13.75;52.61
75964;DHT22;65820;44.726;37.764;2023-02-18T02:13:58;13.74;52.59
75964;DHT22;65820;44.726;37.764;2023-02-18T02:15:31;13.76;52.56
75964;DHT22;65820;44.726;37.764;2023-02-18T02:16:51;13.74;52.59
75964;DHT22;65820;44.726;37.764;2023-02-18T02:18:12;13.75;52.57
75964;DHT22;65820;44.726;37.764;2023-02-18T02:21:26;13.77;52.62
75964;DHT22;65820;44.726;37.764;2023-02-18T02:31:02;13.79;52.99
75964;DHT22;65820;44.726;37.764;2023-02-18T02:33:36;13.81;52.91
75964;DHT22;65820;44.726;37.764;2023-02-18T02:35:02;13.81;52.93
75964;DHT22;65820;44.726;37.764;2023-02-18T02:37:51;13.82;52.95
75964;DHT22;65820;44.726;37.764;2023-02-18T02:43:04;13.82;52.97
75964;DHT22;65820;44.726;37.764;2023-02-18T02:44:21;13.83;52.94
75964;DHT22;65820;44.726;37.764;2023-02-18T02:46:42;13.82;52.95
75964;DHT22;65820;44.726;37.764;2023-02-18T02:48:15;13.81;52.98
75964;DHT22;65820;44.726;37.764;2023-02-18T02:49:31;13.84;52.98
75964;DHT22;65820;44.726;37.764;2023-02-18T02:51:49;13.82;52.96
75964;DHT22;65820;44.726;37.764;2023-02-18T02:52:57;13.82;52.98
75964;DHT22;65820;44.726;37.764;2023-02-18T02:55:20;13.84;52.97
75964;DHT22;65820;44.726;37.764;2023-02-18T02:56:24;13.84;52.97
75964;DHT22;65820;44.726;37.764;2023-02-18T02:58:36;13.85;52.94
75964;DHT22;65820;44.726;37.764;2023-02-18T02:59:40;13.84;53.05
75964;DHT22;65820;44.726;37.764;2023-02-18T03:01:18;13.84;53.02
75964;DHT22;65820;44.726;37.764;2023-02-18T03:02:37;13.85;53.03
75964;DHT22;65820;44.726;37.764;2023-02-18T03:04:08;13.85;52.90
75964;DHT22;65820;44.726;37.764;2023-02-18T03:08:13;13.86;52.99
75964;DHT22;65820;44.726;37.764;2023-02-18T03:11:43;13.84;53.06
75964;DHT22;65820;44.726;37.764;2023-02-18T03:14:09;13.86;53.02
75964;DHT22;65820;44.726;37.764;2023-02-18T03:18:02;13.86;53.01
75964;DHT22;65820;44.726;37.764;2023-02-18T03:20:21;13.86;53.00
75964;DHT22;65820;44.726;37.764;2023-02-18T03:21:40;13.85;53.01
75964;DHT22;65820;44.726;37.764;2023-02-18T03:22:47;13.86;53.08
75964;DHT22;65820;44.726;37.764;2023-02-18T03:24:00;13.88;53.09
75964;DHT22;65820;44.726;37.764;2023-02-18T03:25:02;13.88;53.15
75964;DHT22;65820;44.726;37.764;2023-02-18T03:26:07;13.86;53.14
75964;DHT22;65820;44.726;37.764;2023-02-18T03:27:15;13.88;53.17
75964;DHT22;65820;44.726;37.764;2023-02-18T03:28:20;13.86;53.16
75964;DHT22;65820;44.726;37.764;2023-02-18T03:29:24;13.88;53.07
75964;DHT22;65820;44.726;37.764;2023-02-18T03:30:34;13.86;53.09
75964;DHT22;65820;44.726;37.764;2023-02-18T03:31:37;13.88;53.12
75964;DHT22;65820;44.726;37.764;2023-02-18T03:34:12;13.88;53.15
75964;DHT22;65820;44.726;37.764;2023-02-18T03:35:17;13.88;53.18
75964;DHT22;65820;44.726;37.764;2023-02-18T03:36:20;13.88;53.18
75964;DHT22;65820;44.726;37.764;2023-02-18T03:37:22;13.86;53.14
75964;DHT22;65820;44.726;37.764;2023-02-18T03:38:38;13.88;53.14
75964;DHT22;65820;44.726;37.764;2023-02-18T03:39:42;13.88;53.23
75964;DHT22;65820;44.726;37.764;2023-02-18T03:40:45;13.88;53.14
75964;DHT22;65820;44.726;37.764;2023-02-18T03:41:47;13.88;53.20
75964;DHT22;65820;44.726;37.764;2023-02-18T03:42:49;13.88;53.23
75964;DHT22;65820;44.726;37.764;2023-02-18T03:43:52;13.88;53.15
75964;DHT22;65820;44.726;37.764;2023-02-18T03:44:55;13.88;53.19
75964;DHT22;65820;44.726;37.764;2023-02-18T03:45:57;13.86;53.16
75964;DHT22;65820;44.726;37.764;2023-02-18T03:47:47;13.88;53.12
75964;DHT22;65820;44.726;37.764;2023-02-18T03:48:49;13.88;53.10
75964;DHT22;65820;44.726;37.764;2023-02-18T03:50:46;13.88;53.12
75964;DHT22;65820;44.726;37.764;2023-02-18T03:52:43;13.89;53.04
75964;DHT22;65820;44.726;37.764;2023-02-18T03:53:45;13.91;53.07
75964;DHT22;65820;44.726;37.764;2023-02-18T03:54:47;13.90;53.08
75964;DHT22;65820;44.726;37.764;2023-02-18T03:56:51;13.89;53.17
75964;DHT22;65820;44.726;37.764;2023-02-18T03:57:52;13.90;53.13
75964;DHT22;65820;44.726;37.764;2023-02-18T03:58:54;13.89;53.17
75964;DHT22;65820;44.726;37.764;2023-02-18T03:59:55;13.90;53.20
75964;DHT22;65820;44.726;37.764;2023-02-18T04:00:56;13.90;53.10
75964;DHT22;65820;44.726;37.764;2023-02-18T04:02:46;13.90;53.06
75964;DHT22;65820;44.726;37.764;2023-02-18T04:03:47;13.89;53.24
75964;DHT22;65820;44.726;37.764;2023-02-18T04:04:48;13.90;53.18
75964;DHT22;65820;44.726;37.764;2023-02-18T04:05:50;13.90;55.16
75964;DHT22;65820;44.726;37.764;2023-02-18T04:06:51;13.91;55.03
75964;DHT22;65820;44.726;37.764;2023-02-18T04:07:53;13.93;55.67
75964;DHT22;65820;44.726;37.764;2023-02-18T04:08:54;13.94;55.59
75964;DHT22;65820;44.726;37.764;2023-02-18T04:09:55;13.94;56.10
75964;DHT22;65820;44.726;37.764;2023-02-18T04:10:59;13.95;55.56
75964;DHT22;65820;44.726;37.764;2023-02-18T04:12:01;13.97;54.50
75964;DHT22;65820;44.726;37.764;2023-02-18T04:13:02;13.97;54.23
75964;DHT22;65820;44.726;37.764;2023-02-18T04:14:05;13.98;54.21
75964;DHT22;65820;44.726;37.764;2023-02-18T04:15:06;13.99;54.22
75964;DHT22;65820;44.726;37.764;2023-02-18T04:16:08;13.99;54.21
75964;DHT22;65820;44.726;37.764;2023-02-18T04:17:09;13.99;54.20
75964;DHT22;65820;44.726;37.764;2023-02-18T04:19:46;14.00;54.07
75964;DHT22;65820;44.726;37.764;2023-02-18T04:20:47;13.99;53.98
75964;DHT22;65820;44.726;37.764;2023-02-18T04:21:49;14.00;53.89
75964;DHT22;65820;44.726;37.764;2023-02-18T04:22:50;14.01;53.81
75964;DHT22;65820;44.726;37.764;2023-02-18T04:23:51;13.99;53.81
75964;DHT22;65820;44.726;37.764;2023-02-18T04:24:53;14.00;53.76
75964;DHT22;65820;44.726;37.764;2023-02-18T04:25:54;14.00;53.68
75964;DHT22;65820;44.726;37.764;2023-02-18T04:26:55;14.00;53.68
75964;DHT22;65820;44.726;37.764;2023-02-18T04:27:57;13.99;53.66
75964;DHT22;65820;44.726;37.764;2023-02-18T04:28:58;14.00;53.58
75964;DHT22;65820;44.726;37.764;2023-02-18T04:29:59;13.99;53.56
75964;DHT22;65820;44.726;37.764;2023-02-18T04:31:00;14.00;53.50
75964;DHT22;65820;44.726;37.764;2023-02-18T04:32:02;13.99;53.53
75964;DHT22;65820;44.726;37.764;2023-02-18T04:33:03;13.98;53.47
75964;DHT22;65820;44.726;37.764;2023-02-18T04:34:04;13.99;53.43
75964;DHT22;65820;44.726;37.764;2023-02-18T04:35:06;13.98;53.42
75964;DHT22;65820;44.726;37.764;2023-02-18T04:36:08;13.99;53.42
75964;DHT22;65820;44.726;37.764;2023-02-18T04:37:09;13.98;53.33
75964;DHT22;65820;44.726;37.764;2023-02-18T04:38:13;13.98;53.36
75964;DHT22;65820;44.726;37.764;2023-02-18T04:39:14;13.97;53.37
75964;DHT22;65820;44.726;37.764;2023-02-18T04:40:16;13.97;53.48
75964;DHT22;65820;44.726;37.764;2023-02-18T04:41:17;13.96;53.49
75964;DHT22;65820;44.726;37.764;2023-02-18T04:42:18;13.96;53.51
75964;DHT22;65820;44.726;37.764;2023-02-18T04:43:20;13.98;53.51
75964;DHT22;65820;44.726;37.764;2023-02-18T04:44:21;13.97;53.65
75964;DHT22;65820;44.726;37.764;2023-02-18T04:45:24;13.98;53.56
75964;DHT22;65820;44.726;37.764;2023-02-18T04:46:25;13.97;53.59
75964;DHT22;65820;44.726;37.764;2023-02-18T04:47:26;13.97;53.57
75964;DHT22;65820;44.726;37.764;2023-02-18T04:48:28;13.97;53.56
75964;DHT22;65820;44.726;37.764;2023-02-18T04:49:29;13.97;53.63
75964;DHT22;65820;44.726;37.764;2023-02-18T04:50:30;13.97;53.60
75964;DHT22;65820;44.726;37.764;2023-02-18T04:51:32;13.98;53.64
75964;DHT22;65820;44.726;37.764;2023-02-18T04:52:33;13.97;53.61
75964;DHT22;65820;44.726;37.764;2023-02-18T04:53:34;13.96;53.58
75964;DHT22;65820;44.726;37.764;2023-02-18T04:54:36;13.98;53.57
75964;DHT22;65820;44.726;37.764;2023-02-18T04:55:37;13.97;53.54
75964;DHT22;65820;44.726;37.764;2023-02-18T04:56:38;13.98;53.59
75964;DHT22;65820;44.726;37.764;2023-02-18T04:57:39;13.97;53.53
75964;DHT22;65820;44.726;37.764;2023-02-18T04:58:41;13.97;53.46
75964;DHT22;65820;44.726;37.764;2023-02-18T04:59:42;13.97;53.46
75964;DHT22;65820;44.726;37.764;2023-02-18T05:00:44;13.97;53.46
75964;DHT22;65820;44.726;37.764;2023-02-18T05:01:45;13.95;53.50
75964;DHT22;65820;44.726;37.764;2023-02-18T05:02:47;13.96;53.36
75964;DHT22;65820;44.726;37.764;2023-02-18T05:03:48;13.96;53.42
75964;DHT22;65820;44.726;37.764;2023-02-18T05:04:49;13.97;53.41
75964;DHT22;65820;44.726;37.764;2023-02-18T05:05:51;13.96;53.41
75964;DHT22;65820;44.726;37.764;2023-02-18T05:06:52;13.97;53.40
75964;DHT22;65820;44.726;37.764;2023-02-18T05:07:53;13.96;53.43
75964;DHT22;65820;44.726;37.764;2023-02-18T05:08:55;13.95;53.50
75964;DHT22;65820;44.726;37.764;2023-02-18T05:09:56;13.96;53.70
75964;DHT22;65820;44.726;37.764;2023-02-18T05:10:58;13.96;53.84
75964;DHT22;65820;44.726;37.764;2023-02-18T05:11:59;13.97;53.68
75964;DHT22;65820;44.726;37.764;2023-02-18T05:13:00;13.97;53.57
75964;DHT22;65820;44.726;37.764;2023-02-18T05:14:02;13.97;53.65
75964;DHT22;65820;44.726;37.764;2023-02-18T05:15:04;13.98;53.62
75964;DHT22;65820;44.726;37.764;2023-02-18T05:16:06;13.99;53.76
75964;DHT22;65820;44.726;37.764;2023-02-18T05:17:07;13.99;53.73
75964;DHT22;65820;44.726;37.764;2023-02-18T05:18:08;13.99;53.86
75964;DHT22;65820;44.726;37.764;2023-02-18T05:19:13;14.00;53.85
75964;DHT22;65820;44.726;37.764;2023-02-18T05:22:17;13.99;53.81
75964;DHT22;65820;44.726;37.764;2023-02-18T05:23:18;13.99;53.72
75964;DHT22;65820;44.726;37.764;2023-02-18T05:26:51;14.00;53.78
75964;DHT22;65820;44.726;37.764;2023-02-18T05:27:52;13.99;53.85
75964;DHT22;65820;44.726;37.764;2023-02-18T05:28:53;13.99;53.74
75964;DHT22;65820;44.726;37.764;2023-02-18T05:31:20;13.99;54.07
75964;DHT22;65820;44.726;37.764;2023-02-18T05:32:22;13.99;54.01
75964;DHT22;65820;44.726;37.764;2023-02-18T05:33:24;13.99;54.20
75964;DHT22;65820;44.726;37.764;2023-02-18T05:34:25;14.00;54.15
75964;DHT22;65820;44.726;37.764;2023-02-18T05:35:26;14.01;54.13
75964;DHT22;65820;44.726;37.764;2023-02-18T05:36:28;14.01;54.14
75964;DHT22;65820;44.726;37.764;2023-02-18T05:37:43;14.01;54.13
75964;DHT22;65820;44.726;37.764;2023-02-18T05:38:44;14.03;54.28
75964;DHT22;65820;44.726;37.764;2023-02-18T05:39:46;14.01;54.23
75964;DHT22;65820;44.726;37.764;2023-02-18T05:40:47;14.01;54.26
75964;DHT22;65820;44.726;37.764;2023-02-18T05:41:49;14.03;54.12
75964;DHT22;65820;44.726;37.764;2023-02-18T05:42:50;14.04;54.21
75964;DHT22;65820;44.726;37.764;2023-02-18T05:43:52;14.04;54.27
75964;DHT22;65820;44.726;37.764;2023-02-18T05:45:11;14.04;54.26
75964;DHT22;65820;44.726;37.764;2023-02-18T05:47:04;14.05;54.25
75964;DHT22;65820;44.726;37.764;2023-02-18T05:48:06;14.05;54.18
75964;DHT22;65820;44.726;37.764;2023-02-18T05:49:07;14.05;54.22
75964;DHT22;65820;44.726;37.764;2023-02-18T05:51:04;14.06;54.24
75964;DHT22;65820;44.726;37.764;2023-02-18T05:52:05;14.06;54.10
75964;DHT22;65820;44.726;37.764;2023-02-18T05:53:07;14.06;54.06
75964;DHT22;65820;44.726;37.764;2023-02-18T05:54:08;14.06;54.17
75964;DHT22;65820;44.726;37.764;2023-02-18T05:55:09;14.07;54.17
75964;DHT22;65820;44.726;37.764;2023-02-18T05:56:11;14.06;54.06
75964;DHT22;65820;44.726;37.764;2023-02-18T05:57:13;14.08;54.10
75964;DHT22;65820;44.726;37.764;2023-02-18T05:58:15;14.08;54.09
75964;DHT22;65820;44.726;37.764;2023-02-18T05:59:17;14.07;54.05
75964;DHT22;65820;44.726;37.764;2023-02-18T06:00:18;14.08;54.01
75964;DHT22;65820;44.726;37.764;2023-02-18T06:01:20;14.09;54.07
75964;DHT22;65820;44.726;37.764;2023-02-18T06:02:22;14.09;54.02
75964;DHT22;65820;44.726;37.764;2023-02-18T06:03:23;14.10;54.13
75964;DHT22;65820;44.726;37.764;2023-02-18T06:04:25;14.09;54.12
75964;DHT22;65820;44.726;37.764;2023-02-18T06:05:26;14.09;54.02
75964;DHT22;65820;44.726;37.764;2023-02-18T06:06:28;14.10;53.92
75964;DHT22;65820;44.726;37.764;2023-02-18T06:07:29;14.10;54.01
75964;DHT22;65820;44.726;37.764;2023-02-18T06:10:05;14.10;54.03
75964;DHT22;65820;44.726;37.764;2023-02-18T06:11:07;14.11;53.88
75964;DHT22;65820;44.726;37.764;2023-02-18T06:12:08;14.10;53.96
75964;DHT22;65820;44.726;37.764;2023-02-18T06:13:09;14.11;53.88
75964;DHT22;65820;44.726;37.764;2023-02-18T06:14:10;14.12;53.90
75964;DHT22;65820;44.726;37.764;2023-02-18T06:15:12;14.12;53.97
75964;DHT22;65820;44.726;37.764;2023-02-18T06:16:13;14.11;53.93
75964;DHT22;65820;44.726;37.764;2023-02-18T06:17:15;14.12;53.95
75964;DHT22;65820;44.726;37.764;2023-02-18T06:18:18;14.13;53.90
75964;DHT22;65820;44.726;37.764;2023-02-18T06:19:19;14.12;53.88
75964;DHT22;65820;44.726;37.764;2023-02-18T06:21:09;14.12;53.85
75964;DHT22;65820;44.726;37.764;2023-02-18T06:22:10;14.14;53.88
75964;DHT22;65820;44.726;37.764;2023-02-18T06:23:12;14.13;53.81
75964;DHT22;65820;44.726;37.764;2023-02-18T06:24:13;14.14;53.91
75964;DHT22;65820;44.726;37.764;2023-02-18T06:25:14;14.13;53.80
75964;DHT22;65820;44.726;37.764;2023-02-18T06:26:16;14.13;53.91
75964;DHT22;65820;44.726;37.764;2023-02-18T06:27:18;14.15;53.81
75964;DHT22;65820;44.726;37.764;2023-02-18T06:28:19;14.15;53.97
75964;DHT22;65820;44.726;37.764;2023-02-18T06:29:21;14.15;53.85
75964;DHT22;65820;44.726;37.764;2023-02-18T06:30:22;14.17;53.82
75964;DHT22;65820;44.726;37.764;2023-02-18T06:31:23;14.15;53.93
75964;DHT22;65820;44.726;37.764;2023-02-18T06:32:24;14.15;53.73
75964;DHT22;65820;44.726;37.764;2023-02-18T06:33:26;14.17;53.56
75964;DHT22;65820;44.726;37.764;2023-02-18T06:34:27;14.15;53.46
75964;DHT22;65820;44.726;37.764;2023-02-18T06:35:29;14.18;53.47
75964;DHT22;65820;44.726;37.764;2023-02-18T06:36:30;14.18;53.39
75964;DHT22;65820;44.726;37.764;2023-02-18T06:37:31;14.18;53.33
75964;DHT22;65820;44.726;37.764;2023-02-18T06:38:33;14.18;53.29
75964;DHT22;65820;44.726;37.764;2023-02-18T06:39:35;14.18;53.23
75964;DHT22;65820;44.726;37.764;2023-02-18T06:40:36;14.18;53.24
75964;DHT22;65820;44.726;37.764;2023-02-18T06:41:37;14.18;53.23
75964;DHT22;65820;44.726;37.764;2023-02-18T06:42:40;14.18;53.17
75964;DHT22;65820;44.726;37.764;2023-02-18T06:43:41;14.18;53.16
75964;DHT22;65820;44.726;37.764;2023-02-18T06:46:15;14.17;53.12
75964;DHT22;65820;44.726;37.764;2023-02-18T06:47:16;14.15;53.04
75964;DHT22;65820;44.726;37.764;2023-02-18T06:48:17;14.17;53.05
75964;DHT22;65820;44.726;37.764;2023-02-18T06:49:20;14.15;53.04
75964;DHT22;65820;44.726;37.764;2023-02-18T06:50:21;14.15;53.00
75964;DHT22;65820;44.726;37.764;2023-02-18T06:51:22;14.15;53.04
75964;DHT22;65820;44.726;37.764;2023-02-18T06:52:24;14.15;53.04
75964;DHT22;65820;44.726;37.764;2023-02-18T06:54:35;14.14;53.99
75964;DHT22;65820;44.726;37.764;2023-02-18T06:55:37;14.14;54.55
75964;DHT22;65820;44.726;37.764;2023-02-18T06:56:39;14.14;54.52
75964;DHT22;65820;44.726;37.764;2023-02-18T06:57:40;14.14;54.53
75964;DHT22;65820;44.726;37.764;2023-02-18T06:58:41;14.15;54.33
75964;DHT22;65820;44.726;37.764;2023-02-18T06:59:43;14.17;54.34
75964;DHT22;65820;44.726;37.764;2023-02-18T07:00:45;14.14;54.35
75964;DHT22;65820;44.726;37.764;2023-02-18T07:01:46;14.14;54.38
75964;DHT22;65820;44.726;37.764;2023-02-18T07:02:47;14.15;54.35
75964;DHT22;65820;44.726;37.764;2023-02-18T07:03:49;14.14;54.33
75964;DHT22;65820;44.726;37.764;2023-02-18T07:04:50;14.15;54.43
75964;DHT22;65820;44.726;37.764;2023-02-18T07:05:51;14.17;54.31
75964;DHT22;65820;44.726;37.764;2023-02-18T07:06:53;14.15;54.33
75964;DHT22;65820;44.726;37.764;2023-02-18T07:07:54;14.17;54.51
75964;DHT22;65820;44.726;37.764;2023-02-18T07:08:55;14.18;54.49
75964;DHT22;65820;44.726;37.764;2023-02-18T07:09:56;14.18;54.42
75964;DHT22;65820;44.726;37.764;2023-02-18T07:11:53;14.18;54.30
75964;DHT22;65820;44.726;37.764;2023-02-18T07:12:54;14.18;54.39
75964;DHT22;65820;44.726;37.764;2023-02-18T07:13:56;14.18;54.12
75964;DHT22;65820;44.726;37.764;2023-02-18T07:14:57;14.19;54.23
75964;DHT22;65820;44.726;37.764;2023-02-18T07:15:58;14.19;54.31
75964;DHT22;65820;44.726;37.764;2023-02-18T07:17:00;14.20;54.14
75964;DHT22;65820;44.726;37.764;2023-02-18T07:18:01;14.19;54.14
75964;DHT22;65820;44.726;37.764;2023-02-18T07:19:02;14.20;54.29
75964;DHT22;65820;44.726;37.764;2023-02-18T07:20:04;14.20;54.24
75964;DHT22;65820;44.726;37.764;2023-02-18T07:21:06;14.20;54.24
75964;DHT22;65820;44.726;37.764;2023-02-18T07:22:07;14.20;54.10
75964;DHT22;65820;44.726;37.764;2023-02-18T07:23:09;14.20;54.49
75964;DHT22;65820;44.726;37.764;2023-02-18T07:24:12;14.21;54.53
75964;DHT22;65820;44.726;37.764;2023-02-18T07:25:13;14.21;54.55
75964;DHT22;65820;44.726;37.764;2023-02-18T07:26:15;14.23;54.83
75964;DHT22;65820;44.726;37.764;2023-02-18T07:27:16;14.24;55.42
75964;DHT22;65820;44.726;37.764;2023-02-18T07:28:17;14.25;55.77
75964;DHT22;65820;44.726;37.764;2023-02-18T07:29:18;14.26;55.59
75964;DHT22;65820;44.726;37.764;2023-02-18T07:30:20;14.27;55.77
75964;DHT22;65820;44.726;37.764;2023-02-18T07:31:22;14.29;55.73
75964;DHT22;65820;44.726;37.764;2023-02-18T07:32:23;14.33;55.58
75964;DHT22;65820;44.726;37.764;2023-02-18T07:33:24;14.36;56.01
75964;DHT22;65820;44.726;37.764;2023-02-18T07:34:26;14.39;55.95
75964;DHT22;65820;44.726;37.764;2023-02-18T07:35:27;14.44;54.94
75964;DHT22;65820;44.726;37.764;2023-02-18T07:36:28;14.48;54.92
75964;DHT22;65820;44.726;37.764;2023-02-18T07:37:30;14.51;54.81
75964;DHT22;65820;44.726;37.764;2023-02-18T07:38:31;14.56;54.34
75964;DHT22;65820;44.726;37.764;2023-02-18T07:39:33;14.60;54.13
75964;DHT22;65820;44.726;37.764;2023-02-18T07:40:34;14.66;53.94
75964;DHT22;65820;44.726;37.764;2023-02-18T07:41:35;14.71;53.84
75964;DHT22;65820;44.726;37.764;2023-02-18T07:42:37;14.74;53.58
75964;DHT22;65820;44.726;37.764;2023-02-18T07:43:38;14.81;53.55
75964;DHT22;65820;44.726;37.764;2023-02-18T07:44:40;14.86;53.22
75964;DHT22;65820;44.726;37.764;2023-02-18T07:45:41;14.88;53.30
75964;DHT22;65820;44.726;37.764;2023-02-18T07:46:43;14.96;53.43
75964;DHT22;65820;44.726;37.764;2023-02-18T07:47:44;15.01;53.06
75964;DHT22;65820;44.726;37.764;2023-02-18T07:48:45;15.06;53.13
75964;DHT22;65820;44.726;37.764;2023-02-18T07:49:47;15.14;53.32
75964;DHT22;65820;44.726;37.764;2023-02-18T07:50:48;15.18;52.72
75964;DHT22;65820;44.726;37.764;2023-02-18T07:51:50;15.23;52.43
75964;DHT22;65820;44.726;37.764;2023-02-18T07:52:51;15.28;52.56
75964;DHT22;65820;44.726;37.764;2023-02-18T07:53:53;15.33;52.63
75964;DHT22;65820;44.726;37.764;2023-02-18T07:54:54;15.37;52.48
75964;DHT22;65820;44.726;37.764;2023-02-18T07:55:57;15.42;52.21
75964;DHT22;65820;44.726;37.764;2023-02-18T07:57:00;15.46;51.94
75964;DHT22;65820;44.726;37.764;2023-02-18T07:58:01;15.51;51.65
75964;DHT22;65820;44.726;37.764;2023-02-18T07:59:03;15.55;51.62
75964;DHT22;65820;44.726;37.764;2023-02-18T08:00:04;15.62;52.79
75964;DHT22;65820;44.726;37.764;2023-02-18T08:01:14;15.69;53.49
75964;DHT22;65820;44.726;37.764;2023-02-18T08:02:18;15.75;53.31
75964;DHT22;65820;44.726;37.764;2023-02-18T08:03:27;15.84;52.87
75964;DHT22;65820;44.726;37.764;2023-02-18T08:04:29;15.88;52.59
75964;DHT22;65820;44.726;37.764;2023-02-18T08:05:31;15.96;52.36
75964;DHT22;65820;44.726;37.764;2023-02-18T08:06:37;16.02;52.12
75964;DHT22;65820;44.726;37.764;2023-02-18T08:07:39;16.07;52.05
75964;DHT22;65820;44.726;37.764;2023-02-18T08:08:40;16.13;51.86
75964;DHT22;65820;44.726;37.764;2023-02-18T08:09:42;16.18;51.79
75964;DHT22;65820;44.726;37.764;2023-02-18T08:10:43;16.22;51.66
75964;DHT22;65820;44.726;37.764;2023-02-18T08:11:45;16.28;51.50
75964;DHT22;65820;44.726;37.764;2023-02-18T08:12:46;16.32;51.40
75964;DHT22;65820;44.726;37.764;2023-02-18T08:13:48;16.37;51.30
75964;DHT22;65820;44.726;37.764;2023-02-18T08:14:49;16.41;51.33
75964;DHT22;65820;44.726;37.764;2023-02-18T08:15:54;16.47;51.18
75964;DHT22;65820;44.726;37.764;2023-02-18T08:16:55;16.51;51.22
75964;DHT22;65820;44.726;37.764;2023-02-18T08:17:57;16.56;51.30
75964;DHT22;65820;44.726;37.764;2023-02-18T08:18:59;16.60;50.91
75964;DHT22;65820;44.726;37.764;2023-02-18T08:20:01;16.63;51.06
75964;DHT22;65820;44.726;37.764;2023-02-18T08:21:03;16.67;50.72
75964;DHT22;65820;44.726;37.764;2023-02-18T08:22:04;16.71;50.53
75964;DHT22;65820;44.726;37.764;2023-02-18T08:23:05;16.74;50.47
75964;DHT22;65820;44.726;37.764;2023-02-18T08:24:07;16.76;50.62
75964;DHT22;65820;44.726;37.764;2023-02-18T08:25:08;16.78;50.61
75964;DHT22;65820;44.726;37.764;2023-02-18T08:26:10;16.82;50.39
75964;DHT22;65820;44.726;37.764;2023-02-18T08:27:16;16.82;50.17
75964;DHT22;65820;44.726;37.764;2023-02-18T08:28:18;16.81;49.90
75964;DHT22;65820;44.726;37.764;2023-02-18T08:29:19;16.80;50.33
75964;DHT22;65820;44.726;37.764;2023-02-18T08:30:21;16.80;50.08
75964;DHT22;65820;44.726;37.764;2023-02-18T08:31:27;16.79;50.47
75964;DHT22;65820;44.726;37.764;2023-02-18T08:32:29;16.78;50.43
75964;DHT22;65820;44.726;37.764;2023-02-18T08:33:30;16.75;50.37
75964;DHT22;65820;44.726;37.764;2023-02-18T08:34:32;16.73;50.59
75964;DHT22;65820;44.726;37.764;2023-02-18T08:35:33;16.72;50.52
75964;DHT22;65820;44.726;37.764;2023-02-18T08:36:35;16.69;50.60
75964;DHT22;65820;44.726;37.764;2023-02-18T08:37:37;16.64;50.76
75964;DHT22;65820;44.726;37.764;2023-02-18T08:38:38;16.63;50.74
75964;DHT22;65820;44.726;37.764;2023-02-18T08:39:39;16.62;50.76
75964;DHT22;65820;44.726;37.764;2023-02-18T08:40:41;16.58;50.85
75964;DHT22;65820;44.726;37.764;2023-02-18T08:41:42;16.58;51.02
75964;DHT22;65820;44.726;37.764;2023-02-18T08:42:44;16.55;51.01
75964;DHT22;65820;44.726;37.764;2023-02-18T08:43:46;16.52;51.14